Time;durP1;ratioP1;P1;durP2;ratioP2;P2;SDS_P1;SDS_P2;PMS_P1;PMS_P2;Temp;Humidity;BMP_temperature;BMP_pressure;BME280_temperature;BME280_humidity;BME280_pressure;Samples;Min_cycle;Max_cycle;Signal;HPM_P1;HPM_P2
2022/12/29 00:01:34;;;;;;;9.52;8.70;;;9.80;99.90;;;;;;5107510;27;20795;-46
2022/12/29 00:04:00;;;;;;;8.43;7.72;;;9.80;99.90;;;;;;5112476;27;20300;-49
2022/12/29 00:06:26;;;;;;;8.70;8.00;;;9.90;99.90;;;;;;5103330;27;20046;-45
2022/12/29 00:08:52;;;;;;;9.30;8.38;;;9.90;99.90;;;;;;5120938;27;20046;-46
2022/12/29 00:11:26;;;;;;;8.75;7.95;;;9.80;99.90;;;;;;5110770;27;20359;-46
2022/12/29 00:16:40;;;;;;;9.70;8.80;;;10.00;99.90;;;;;;5103416;27;20057;-49
2022/12/29 00:19:06;;;;;;;9.80;9.00;;;9.90;99.90;;;;;;5109332;27;20031;-49
2022/12/29 00:35:26;;;;;;;8.27;7.53;;;10.00;99.90;;;;;;5111115;27;20072;-47
2022/12/29 00:46:05;;;;;;;8.45;7.15;;;10.00;99.90;;;;;;5106016;27;20058;-50
2022/12/29 00:51:15;;;;;;;7.25;6.55;;;10.00;99.90;;;;;;5102661;27;20047;-49
2022/12/29 00:53:41;;;;;;;7.55;6.80;;;10.00;99.90;;;;;;5088506;27;20108;-48
2022/12/29 00:56:06;;;;;;;7.45;6.75;;;9.90;99.90;;;;;;5103127;27;20645;-49
2022/12/29 00:58:32;;;;;;;7.20;6.50;;;10.10;99.90;;;;;;5087764;27;20038;-49
2022/12/29 01:01:06;;;;;;;9.65;7.07;;;10.00;99.90;;;;;;5107350;27;20385;-47
2022/12/29 01:03:33;;;;;;;7.70;7.00;;;10.00;99.90;;;;;;5106062;27;20043;-48
2022/12/29 01:06:02;;;;;;;7.25;6.55;;;10.00;99.90;;;;;;5110436;27;20047;-48
2022/12/29 01:08:29;;;;;;;8.13;7.38;;;10.10;99.90;;;;;;5103889;27;20074;-48
2022/12/29 01:11:02;;;;;;;8.43;6.97;;;10.00;99.90;;;;;;5097466;27;20051;-47
2022/12/29 01:13:28;;;;;;;7.55;6.82;;;10.10;99.90;;;;;;5090250;27;20867;-47
2022/12/29 01:15:54;;;;;;;9.27;7.35;;;10.00;99.90;;;;;;5106585;27;20783;-49
2022/12/29 01:18:20;;;;;;;8.65;6.95;;;10.00;99.90;;;;;;5111398;27;20477;-45
2022/12/29 01:20:46;;;;;;;7.45;6.80;;;10.10;99.90;;;;;;5106594;27;20186;-47
2022/12/29 01:23:12;;;;;;;8.85;7.63;;;10.00;99.90;;;;;;5096028;27;20595;-47
2022/12/29 01:25:37;;;;;;;8.75;7.95;;;10.00;99.90;;;;;;5094258;27;20065;-45
2022/12/29 01:28:03;;;;;;;8.50;7.60;;;9.90;99.90;;;;;;5118346;27;20112;-46
2022/12/29 01:30:29;;;;;;;7.53;6.82;;;9.90;99.90;;;;;;5114676;27;20085;-45
2022/12/29 01:32:55;;;;;;;9.77;8.23;;;10.00;99.90;;;;;;5116298;27;20068;-48
2022/12/29 01:35:21;;;;;;;9.32;7.80;;;9.90;99.90;;;;;;5108038;27;20582;-45
2022/12/29 01:37:46;;;;;;;8.52;7.72;;;9.80;99.90;;;;;;5110336;27;20046;-50
2022/12/29 01:40:12;;;;;;;8.45;7.60;;;9.90;99.90;;;;;;5113335;27;20482;-49
2022/12/29 01:42:38;;;;;;;7.68;6.97;;;9.90;99.90;;;;;;5118591;27;20062;-48
2022/12/29 01:45:10;;;;;;;7.45;6.53;;;9.80;99.90;;;;;;5122210;27;20039;-49
2022/12/29 01:47:41;;;;;;;7.40;6.68;;;9.90;99.90;;;;;;5117845;27;20699;-48
2022/12/29 01:50:11;;;;;;;6.28;5.70;;;9.80;99.90;;;;;;5110169;27;20382;-48
2022/12/29 01:52:41;;;;;;;7.88;6.07;;;9.80;99.90;;;;;;5093036;27;20043;-46
2022/12/29 01:55:09;;;;;;;6.57;5.40;;;9.90;99.90;;;;;;5111882;27;20091;-48
2022/12/29 01:57:39;;;;;;;5.55;4.97;;;10.10;99.90;;;;;;5104768;27;20107;-49
2022/12/29 02:00:09;;;;;;;5.20;4.70;;;10.10;99.90;;;;;;5115995;27;20046;-50
2022/12/29 02:02:35;;;;;;;7.03;4.50;;;10.00;99.90;;;;;;5115879;27;20047;-50
2022/12/29 02:05:15;;;;;;;4.80;4.32;;;10.10;99.90;;;;;;5094551;27;20062;-47
2022/12/29 02:07:42;;;;;;;6.55;4.35;;;10.00;99.90;;;;;;5105752;27;20151;-45
2022/12/29 02:10:07;;;;;;;6.47;4.20;;;10.10;99.90;;;;;;5093085;27;20097;-46
2022/12/29 02:12:34;;;;;;;6.22;4.00;;;10.00;99.90;;;;;;5115248;27;20549;-50
2022/12/29 02:15:02;;;;;;;6.45;4.05;;;10.00;99.90;;;;;;5119310;27;20113;-48
2022/12/29 02:17:43;;;;;;;4.93;4.10;;;10.00;99.90;;;;;;5117894;27;20540;-47
2022/12/29 02:20:11;;;;;;;6.25;4.25;;;10.10;99.90;;;;;;5109798;27;20104;-49
2022/12/29 02:23:05;;;;;;;5.63;3.58;;;10.10;99.90;;;;;;5096184;27;20167;-47
2022/12/29 02:25:58;;;;;;;5.75;3.65;;;10.20;99.90;;;;;;5110925;27;20465;-49
2022/12/29 02:28:54;;;;;;;5.40;3.10;;;10.10;99.90;;;;;;5110870;27;20047;-46
2022/12/29 02:31:35;;;;;;;4.97;2.97;;;10.10;99.90;;;;;;5107618;27;20504;-47
2022/12/29 02:34:26;;;;;;;6.18;3.03;;;10.20;99.90;;;;;;5107121;27;20078;-45
2022/12/29 02:37:08;;;;;;;4.97;3.08;;;10.30;99.90;;;;;;5109760;27;20046;-47
2022/12/29 02:39:52;;;;;;;4.13;2.78;;;10.20;99.90;;;;;;5108063;27;20434;-48
2022/12/29 02:42:30;;;;;;;2.97;2.40;;;10.10;99.90;;;;;;5108526;27;20481;-46
2022/12/29 02:45:15;;;;;;;2.97;2.30;;;10.10;99.90;;;;;;5106299;27;20062;-46
2022/12/29 02:48:07;;;;;;;3.97;2.60;;;10.20;99.90;;;;;;5105403;27;20058;-50
2022/12/29 02:50:40;;;;;;;3.70;2.33;;;10.20;99.90;;;;;;5112943;27;20043;-46
2022/12/29 02:53:16;;;;;;;3.85;2.45;;;10.10;99.90;;;;;;5110764;27;20043;-50
2022/12/29 02:55:52;;;;;;;5.25;2.45;;;10.10;99.90;;;;;;5117204;27;20108;-48
2022/12/29 02:58:22;;;;;;;3.22;2.60;;;10.10;99.90;;;;;;5117186;27;20045;-45
2022/12/29 03:01:11;;;;;;;5.15;2.00;;;10.10;99.90;;;;;;5097520;27;20043;-45
2022/12/29 03:03:55;;;;;;;4.05;2.20;;;10.00;99.90;;;;;;5103295;27;20453;-46
2022/12/29 03:06:37;;;;;;;4.15;1.67;;;10.00;99.90;;;;;;5109218;27;20053;-49
2022/12/29 03:09:18;;;;;;;4.88;1.90;;;9.90;99.90;;;;;;5109337;27;20082;-47
2022/12/29 03:12:16;;;;;;;4.07;2.17;;;9.80;99.90;;;;;;5114380;27;20035;-49
2022/12/29 03:17:51;;;;;;;4.82;1.52;;;9.60;99.90;;;;;;5023795;28;20857;-45
2022/12/29 03:20:31;;;;;;;7.25;2.00;;;9.50;99.90;;;;;;5025916;28;20681;-48
2022/12/29 03:23:00;;;;;;;3.65;1.70;;;9.50;99.90;;;;;;5022550;28;20045;-49
2022/12/29 03:25:33;;;;;;;4.80;2.00;;;9.40;99.90;;;;;;5011066;28;20442;-47
2022/12/29 03:28:04;;;;;;;4.53;2.10;;;9.40;99.90;;;;;;5024455;28;20084;-48
2022/12/29 03:30:32;;;;;;;7.03;1.92;;;9.40;99.90;;;;;;5006694;28;20041;-47
2022/12/29 03:33:12;;;;;;;4.75;2.20;;;9.40;99.90;;;;;;5026152;28;20543;-46
2022/12/29 03:35:40;;;;;;;5.60;2.08;;;9.30;99.90;;;;;;5023874;28;20574;-47
2022/12/29 03:38:42;;;;;;;6.88;2.70;;;9.40;99.90;;;;;;5017247;28;20084;-47
2022/12/29 03:41:11;;;;;;;5.50;2.20;;;9.40;99.90;;;;;;5014182;28;20033;-45
2022/12/29 03:43:37;;;;;;;7.32;2.05;;;9.40;99.90;;;;;;5017085;28;20041;-47
2022/12/29 03:46:03;;;;;;;4.05;2.05;;;9.40;99.90;;;;;;5023264;28;20053;-49
2022/12/29 03:48:29;;;;;;;3.70;2.00;;;9.40;99.90;;;;;;5014227;28;20127;-48
2022/12/29 03:50:54;;;;;;;7.28;1.90;;;9.40;99.90;;;;;;5034171;27;20051;-45
2022/12/29 03:53:21;;;;;;;5.40;2.22;;;9.50;99.90;;;;;;5113592;27;20046;-47
2022/12/29 03:55:46;;;;;;;6.85;1.90;;;9.60;99.90;;;;;;5111669;27;20043;-47
2022/12/29 03:58:12;;;;;;;5.25;1.52;;;9.60;99.90;;;;;;5111512;27;20039;-47
2022/12/29 04:00:38;;;;;;;6.15;1.85;;;9.60;99.90;;;;;;5113274;27;20402;-46
2022/12/29 04:03:04;;;;;;;7.60;1.77;;;9.70;99.90;;;;;;5108384;27;20508;-49
2022/12/29 04:05:30;;;;;;;5.90;1.77;;;9.60;99.90;;;;;;5114665;27;20324;-48
2022/12/29 04:07:56;;;;;;;8.20;2.10;;;9.60;99.90;;;;;;5114075;27;20054;-52
2022/12/29 04:10:22;;;;;;;6.75;1.60;;;9.50;99.90;;;;;;5110215;27;20054;-46
2022/12/29 04:12:47;;;;;;;12.65;2.40;;;9.50;99.90;;;;;;5090681;27;20066;-46
2022/12/29 04:15:13;;;;;;;6.05;1.48;;;9.40;99.90;;;;;;5107319;27;20091;-46
2022/12/29 04:17:39;;;;;;;5.63;1.38;;;9.40;99.90;;;;;;5113539;27;20039;-50
2022/12/29 04:22:56;;;;;;;8.10;2.25;;;9.20;99.90;;;;;;5112187;27;20042;-47
2022/12/29 04:25:22;;;;;;;5.68;1.60;;;9.10;99.90;;;;;;5110446;27;20047;-46
2022/12/29 04:27:48;;;;;;;6.00;1.60;;;9.10;99.90;;;;;;5112679;27;20156;-47
2022/12/29 04:30:13;;;;;;;5.25;1.70;;;9.00;99.90;;;;;;5090369;27;20123;-47
2022/12/29 04:32:39;;;;;;;8.35;1.42;;;8.90;99.90;;;;;;5094181;27;20543;-48
2022/12/29 04:35:05;;;;;;;9.60;1.63;;;8.80;99.90;;;;;;5114136;27;20258;-47
2022/12/29 04:37:31;;;;;;;12.85;1.90;;;8.90;99.90;;;;;;5112075;27;20576;-47
2022/12/29 04:39:56;;;;;;;8.25;1.85;;;8.80;99.90;;;;;;5106301;27;20043;-49
2022/12/29 04:42:22;;;;;;;8.57;2.30;;;8.80;99.90;;;;;;5109310;27;20400;-46
2022/12/29 04:44:48;;;;;;;7.60;1.73;;;8.80;99.90;;;;;;5112662;27;20382;-48
2022/12/29 04:47:13;;;;;;;8.43;2.17;;;8.80;99.90;;;;;;5113801;27;20689;-47
2022/12/29 04:49:39;;;;;;;7.13;2.03;;;8.70;99.90;;;;;;5101929;27;20473;-49
2022/12/29 04:52:05;;;;;;;9.52;2.65;;;8.80;99.90;;;;;;5092282;27;20134;-51
2022/12/29 04:54:30;;;;;;;15.27;3.25;;;8.70;99.90;;;;;;5109281;27;20129;-50
2022/12/29 04:56:56;;;;;;;9.60;2.30;;;8.70;99.90;;;;;;5119027;27;20126;-46
2022/12/29 04:59:22;;;;;;;11.98;2.28;;;8.70;99.90;;;;;;5119247;27;20130;-49
2022/12/29 05:01:47;;;;;;;11.80;2.53;;;8.70;99.90;;;;;;5116554;27;20043;-49
2022/12/29 05:04:13;;;;;;;12.30;2.90;;;8.70;99.90;;;;;;5120891;27;20031;-46
2022/12/29 05:06:39;;;;;;;10.70;2.28;;;8.60;99.90;;;;;;5118051;27;20547;-48
2022/12/29 05:09:05;;;;;;;10.52;2.40;;;8.60;99.90;;;;;;5128041;27;20568;-48
2022/12/29 05:11:31;;;;;;;17.15;3.50;;;8.60;99.90;;;;;;5117514;27;20427;-51
2022/12/29 05:13:56;;;;;;;13.90;2.70;;;8.60;99.90;;;;;;5124146;27;20035;-50
2022/12/29 05:16:22;;;;;;;15.40;2.65;;;8.50;99.90;;;;;;5115190;27;20035;-45
2022/12/29 05:18:48;;;;;;;13.70;2.85;;;8.60;99.90;;;;;;5115876;27;20050;-48
2022/12/29 05:21:13;;;;;;;11.55;3.05;;;8.60;99.90;;;;;;5095840;27;20054;-48
2022/12/29 05:23:39;;;;;;;16.92;3.80;;;8.50;99.90;;;;;;5118551;27;20141;-51
2022/12/29 05:26:05;;;;;;;13.88;3.00;;;8.60;99.90;;;;;;5121138;27;20450;-49
2022/12/29 05:28:30;;;;;;;9.98;2.78;;;8.60;99.90;;;;;;5123263;27;20588;-46
2022/12/29 05:30:56;;;;;;;19.15;3.35;;;8.60;99.90;;;;;;5124666;27;20524;-50
2022/12/29 05:33:21;;;;;;;11.10;3.10;;;8.60;99.90;;;;;;5121217;27;20039;-48
2022/12/29 05:35:47;;;;;;;11.75;3.17;;;8.60;99.90;;;;;;5108820;27;20043;-48
2022/12/29 05:38:13;;;;;;;12.65;2.95;;;8.60;99.90;;;;;;5124593;27;20039;-45
2022/12/29 05:40:38;;;;;;;13.65;2.70;;;8.70;99.90;;;;;;5110070;27;20086;-47
2022/12/29 05:43:04;;;;;;;10.90;2.65;;;8.70;99.90;;;;;;5127917;27;20095;-48
2022/12/29 05:45:30;;;;;;;9.60;2.92;;;8.60;99.90;;;;;;5127005;27;20726;-47
2022/12/29 05:47:55;;;;;;;10.38;2.47;;;8.70;99.90;;;;;;5122204;27;20127;-48
2022/12/29 05:50:21;;;;;;;10.30;2.67;;;8.60;99.90;;;;;;5104484;27;20122;-48
2022/12/29 05:52:47;;;;;;;8.95;1.75;;;8.60;99.90;;;;;;5122291;27;20072;-49
2022/12/29 05:55:13;;;;;;;12.57;2.97;;;8.60;99.90;;;;;;5094603;27;20050;-45
2022/12/29 05:57:38;;;;;;;16.50;3.15;;;8.50;99.90;;;;;;5115947;27;20390;-49
2022/12/29 06:00:06;;;;;;;16.38;3.22;;;8.50;99.90;;;;;;5116485;27;20074;-48
2022/12/29 06:02:32;;;;;;;14.40;3.28;;;8.50;99.90;;;;;;5123485;27;20066;-47
2022/12/29 06:04:57;;;;;;;15.27;3.20;;;8.60;99.90;;;;;;5116209;27;20157;-49
2022/12/29 06:07:23;;;;;;;14.10;2.70;;;8.60;99.90;;;;;;5101042;27;20158;-50
2022/12/29 06:09:49;;;;;;;11.95;2.83;;;8.70;99.90;;;;;;5114439;27;20074;-46
2022/12/29 06:12:14;;;;;;;13.05;2.80;;;8.70;99.90;;;;;;5112018;27;20041;-46
2022/12/29 06:14:40;;;;;;;15.05;3.00;;;8.60;99.90;;;;;;5110512;27;20031;-50
2022/12/29 06:17:06;;;;;;;15.15;3.33;;;8.60;99.90;;;;;;5114964;27;20074;-47
2022/12/29 06:19:32;;;;;;;14.65;2.90;;;8.60;99.90;;;;;;5091864;27;20059;-50
2022/12/29 06:21:58;;;;;;;17.20;3.38;;;8.50;99.90;;;;;;5111731;27;20035;-47
2022/12/29 06:24:23;;;;;;;13.27;3.45;;;8.40;99.90;;;;;;5120883;27;20042;-51
2022/12/29 06:26:49;;;;;;;20.95;4.03;;;8.50;99.90;;;;;;5109221;27;20035;-48
2022/12/29 06:29:16;;;;;;;15.40;3.70;;;8.50;99.90;;;;;;5096948;27;20042;-48
2022/12/29 06:31:45;;;;;;;17.35;3.00;;;8.50;99.90;;;;;;5112690;27;20031;-47
2022/12/29 06:34:11;;;;;;;16.50;3.47;;;8.50;99.90;;;;;;5109515;27;20040;-50
2022/12/29 06:36:37;;;;;;;15.43;3.17;;;8.40;99.90;;;;;;5109609;27;20078;-47
2022/12/29 06:39:03;;;;;;;19.33;3.72;;;8.40;99.90;;;;;;5107008;27;20272;-45
2022/12/29 06:41:28;;;;;;;15.88;3.15;;;8.40;99.90;;;;;;5088884;27;20043;-48
2022/12/29 06:43:54;;;;;;;17.85;3.75;;;8.30;99.90;;;;;;5109109;27;20208;-50
2022/12/29 06:46:20;;;;;;;12.15;3.00;;;8.30;99.90;;;;;;5088182;27;20388;-49
2022/12/29 06:48:45;;;;;;;15.32;4.32;;;8.30;99.90;;;;;;5111629;27;20114;-49
2022/12/29 06:51:11;;;;;;;16.92;3.75;;;8.40;99.90;;;;;;5109840;27;20508;-49
2022/12/29 06:53:37;;;;;;;11.13;3.45;;;8.50;99.90;;;;;;5104959;27;20061;-45
2022/12/29 06:56:03;;;;;;;15.88;4.65;;;8.50;99.90;;;;;;5112558;27;20041;-49
2022/12/29 06:58:28;;;;;;;13.07;3.60;;;8.50;99.90;;;;;;5108951;27;20092;-47
2022/12/29 07:00:54;;;;;;;16.38;3.67;;;8.60;99.90;;;;;;5109648;27;20044;-52
2022/12/29 07:03:20;;;;;;;16.85;3.65;;;8.60;99.90;;;;;;5111347;27;20390;-48
2022/12/29 07:05:45;;;;;;;15.23;3.20;;;8.60;99.90;;;;;;5112242;27;20598;-49
2022/12/29 07:08:11;;;;;;;16.13;4.38;;;8.60;99.90;;;;;;5112955;27;20105;-49
2022/12/29 07:10:37;;;;;;;14.02;4.03;;;8.60;99.90;;;;;;5107065;27;20130;-48
2022/12/29 07:13:02;;;;;;;14.80;3.50;;;8.60;99.90;;;;;;5113758;27;20057;-45
2022/12/29 07:15:28;;;;;;;14.20;4.20;;;8.70;99.90;;;;;;5108004;27;20051;-47
2022/12/29 07:17:54;;;;;;;12.48;3.05;;;8.70;99.90;;;;;;5104539;27;20113;-49
2022/12/29 07:20:20;;;;;;;15.52;3.60;;;8.70;99.90;;;;;;5101570;27;20047;-47
2022/12/29 07:22:47;;;;;;;17.92;4.20;;;8.70;99.90;;;;;;5101447;27;20464;-47
2022/12/29 07:25:12;;;;;;;13.07;3.38;;;8.70;99.90;;;;;;5102075;27;20437;-50
2022/12/29 07:27:38;;;;;;;16.52;3.50;;;8.70;99.90;;;;;;5102769;27;20064;-45
2022/12/29 07:30:04;;;;;;;14.57;3.85;;;8.80;99.90;;;;;;5104778;27;20129;-49
2022/12/29 07:32:33;;;;;;;10.30;3.00;;;8.80;99.90;;;;;;5110725;27;20281;-47
2022/12/29 07:34:59;;;;;;;16.35;3.58;;;8.90;99.90;;;;;;5103832;27;20100;-50
2022/12/29 07:37:24;;;;;;;16.33;3.42;;;8.90;99.90;;;;;;5104714;27;20112;-47
2022/12/29 07:39:50;;;;;;;14.18;3.38;;;8.90;99.90;;;;;;5107289;27;21146;-51
2022/12/29 07:42:16;;;;;;;20.45;4.07;;;8.80;99.90;;;;;;5088882;27;20039;-49
2022/12/29 07:44:42;;;;;;;19.48;4.18;;;8.80;99.90;;;;;;5104044;27;20089;-49
2022/12/29 07:47:07;;;;;;;12.02;3.28;;;8.80;99.90;;;;;;5100923;27;20261;-47
2022/12/29 07:49:33;;;;;;;16.50;3.35;;;8.90;99.90;;;;;;5117904;27;20397;-48
2022/12/29 07:51:58;;;;;;;18.05;4.10;;;8.80;99.90;;;;;;5115113;27;20431;-45
2022/12/29 07:54:24;;;;;;;20.73;5.53;;;8.80;99.90;;;;;;5111131;27;20035;-46
2022/12/29 07:56:50;;;;;;;18.70;4.75;;;8.80;99.90;;;;;;5087385;27;20541;-46
2022/12/29 07:59:16;;;;;;;19.77;4.05;;;8.90;99.90;;;;;;5120547;27;20087;-46
2022/12/29 08:01:41;;;;;;;22.08;4.10;;;8.80;99.90;;;;;;5114166;27;20061;-47
2022/12/29 08:04:07;;;;;;;23.45;4.15;;;8.80;99.90;;;;;;5095209;27;20172;-48
2022/12/29 08:06:33;;;;;;;17.45;3.85;;;8.80;99.90;;;;;;5119536;27;20481;-48
2022/12/29 08:09:00;;;;;;;14.68;3.45;;;8.80;99.90;;;;;;5102210;27;20050;-49
2022/12/29 08:11:25;;;;;;;24.20;4.07;;;8.80;99.90;;;;;;5085132;27;20051;-45
2022/12/29 08:13:52;;;;;;;15.75;3.80;;;8.80;99.90;;;;;;5105512;27;20071;-46
2022/12/29 08:16:18;;;;;;;16.73;4.15;;;8.80;99.90;;;;;;5106040;27;20347;-46
2022/12/29 08:18:44;;;;;;;19.40;4.75;;;8.80;99.90;;;;;;5088947;27;20050;-47
2022/12/29 08:21:10;;;;;;;21.52;4.32;;;8.90;99.90;;;;;;5092083;27;20047;-48
2022/12/29 08:23:35;;;;;;;19.55;3.78;;;8.80;99.90;;;;;;5085912;27;20055;-47
2022/12/29 08:26:04;;;;;;;28.02;4.88;;;8.90;99.90;;;;;;5089677;27;20538;-45
2022/12/29 08:28:30;;;;;;;22.55;4.78;;;8.90;99.90;;;;;;5112360;27;20035;-45
2022/12/29 08:31:01;;;;;;;24.63;4.53;;;8.90;99.90;;;;;;5108883;27;20058;-46
2022/12/29 08:33:27;;;;;;;17.83;4.85;;;9.00;99.90;;;;;;5110006;27;20451;-49
2022/12/29 08:35:59;;;;;;;25.27;5.68;;;8.90;99.90;;;;;;5113003;27;20089;-47
2022/12/29 08:38:26;;;;;;;24.30;5.95;;;8.90;99.90;;;;;;5119537;27;20046;-46
2022/12/29 08:40:52;;;;;;;23.35;5.05;;;8.90;99.90;;;;;;5114885;27;20053;-46
2022/12/29 08:43:17;;;;;;;26.70;5.53;;;9.00;99.90;;;;;;5112564;27;20042;-47
2022/12/29 08:45:43;;;;;;;20.98;4.90;;;9.00;99.90;;;;;;5095485;27;20043;-47
2022/12/29 08:48:08;;;;;;;19.83;4.07;;;9.00;99.90;;;;;;5119507;27;20397;-45
2022/12/29 08:50:34;;;;;;;19.13;5.00;;;8.90;99.90;;;;;;5114736;27;20362;-47
2022/12/29 08:53:00;;;;;;;26.67;5.03;;;9.00;99.90;;;;;;5115361;27;20060;-50
2022/12/29 08:55:26;;;;;;;32.95;6.00;;;9.00;99.90;;;;;;5096618;27;20514;-50
2022/12/29 08:57:52;;;;;;;25.15;5.20;;;9.00;99.90;;;;;;5105135;27;20126;-44
2022/12/29 09:00:18;;;;;;;22.73;4.35;;;9.00;99.90;;;;;;5112734;27;20049;-46
2022/12/29 09:02:43;;;;;;;24.48;4.88;;;9.00;99.90;;;;;;5114710;27;20070;-47
2022/12/29 09:05:09;;;;;;;23.85;5.07;;;8.90;99.90;;;;;;5111011;27;20164;-48
2022/12/29 09:07:35;;;;;;;27.67;5.53;;;8.80;99.90;;;;;;5114291;27;20490;-49
2022/12/29 09:10:01;;;;;;;17.38;3.75;;;8.80;99.90;;;;;;5111754;27;20035;-46
2022/12/29 09:12:27;;;;;;;15.18;3.42;;;8.80;99.90;;;;;;5113363;27;20179;-44
2022/12/29 09:14:52;;;;;;;19.17;5.65;;;8.80;99.90;;;;;;5107405;27;20088;-46
2022/12/29 09:20:04;;;;;;;19.10;4.10;;;8.90;99.90;;;;;;5112633;27;20332;-49
2022/12/29 09:22:29;;;;;;;16.77;4.43;;;8.90;99.90;;;;;;5121394;27;20217;-47
2022/12/29 09:24:55;;;;;;;18.45;4.90;;;8.90;99.90;;;;;;5116878;27;20477;-47
2022/12/29 09:27:20;;;;;;;23.95;4.47;;;9.00;99.90;;;;;;5094442;28;20408;-48
2022/12/29 09:29:46;;;;;;;10.60;3.55;;;8.90;99.90;;;;;;5116641;27;20504;-47
2022/12/29 09:32:12;;;;;;;19.63;3.85;;;9.00;99.90;;;;;;5126996;27;20533;-44
2022/12/29 09:34:37;;;;;;;18.75;3.58;;;8.90;99.90;;;;;;5134973;27;20046;-44
2022/12/29 09:37:03;;;;;;;19.80;4.60;;;8.80;99.90;;;;;;5115346;27;20477;-45
2022/12/29 09:39:29;;;;;;;15.38;3.40;;;8.80;99.90;;;;;;5112620;27;20055;-45
2022/12/29 09:42:04;;;;;;;18.15;3.67;;;8.80;99.90;;;;;;5127233;27;20883;-48
2022/12/29 09:44:30;;;;;;;18.02;4.10;;;8.80;99.90;;;;;;5099544;27;20061;-48
2022/12/29 09:46:57;;;;;;;22.42;4.53;;;8.80;99.90;;;;;;5132799;27;20121;-48
2022/12/29 09:49:38;;;;;;;19.40;4.30;;;8.70;99.90;;;;;;5131448;27;20042;-47
2022/12/29 09:52:12;;;;;;;20.70;4.47;;;8.80;99.90;;;;;;5127099;27;20081;-48
2022/12/29 09:55:00;;;;;;;18.75;4.20;;;8.70;99.90;;;;;;5125007;27;20035;-49
2022/12/29 09:57:46;;;;;;;20.27;3.95;;;8.70;99.90;;;;;;5098982;27;20047;-50
2022/12/29 10:00:13;;;;;;;22.05;3.90;;;8.70;99.90;;;;;;5096087;27;20042;-47
2022/12/29 10:03:19;;;;;;;13.25;3.33;;;8.70;99.90;;;;;;5110882;27;20108;-48
2022/12/29 10:06:46;;;;;;;13.52;4.22;;;8.60;99.90;;;;;;5013960;28;20519;-48
2022/12/29 10:09:29;;;;;;;21.98;4.70;;;8.60;99.90;;;;;;4973591;28;20480;-49
2022/12/29 10:12:09;;;;;;;22.52;4.43;;;8.60;99.90;;;;;;4975180;28;20411;-47
2022/12/29 10:14:58;;;;;;;18.35;3.40;;;8.50;99.90;;;;;;4985428;28;20433;-52
2022/12/29 10:17:32;;;;;;;16.17;3.47;;;8.40;99.90;;;;;;4982355;28;20061;-51
2022/12/29 10:20:19;;;;;;;20.35;3.65;;;8.40;99.90;;;;;;4976180;28;20939;-45
2022/12/29 10:23:12;;;;;;;21.30;3.50;;;8.40;99.90;;;;;;4983112;28;20058;-49
2022/12/29 10:25:40;;;;;;;19.27;4.25;;;8.30;99.90;;;;;;4980455;28;20041;-45
2022/12/29 10:28:20;;;;;;;19.33;3.97;;;8.50;99.90;;;;;;4984793;28;20038;-50
2022/12/29 10:30:48;;;;;;;17.73;3.60;;;8.50;99.90;;;;;;4965685;28;20255;-48
2022/12/29 10:33:26;;;;;;;17.88;3.67;;;8.50;99.90;;;;;;4982192;28;20042;-44
2022/12/29 10:35:52;;;;;;;20.00;4.03;;;8.60;99.90;;;;;;4983804;28;20056;-50
2022/12/29 10:38:23;;;;;;;18.17;3.97;;;8.50;99.90;;;;;;5052856;28;20154;-45
2022/12/29 10:41:05;;;;;;;20.35;4.28;;;8.50;99.90;;;;;;5072114;28;20378;-46
2022/12/29 10:43:37;;;;;;;20.63;4.75;;;8.50;99.90;;;;;;5112660;27;20362;-46
2022/12/29 10:46:08;;;;;;;22.35;4.47;;;8.60;99.90;;;;;;5098989;27;20380;-46
2022/12/29 10:48:35;;;;;;;22.80;4.45;;;8.50;99.90;;;;;;5117575;27;20323;-45
2022/12/29 10:51:20;;;;;;;22.48;3.92;;;8.40;99.90;;;;;;5114450;27;20055;-48
2022/12/29 10:54:02;;;;;;;15.38;4.78;;;8.60;99.90;;;;;;5110686;27;20191;-48
2022/12/29 10:56:30;;;;;;;20.20;4.97;;;8.70;99.90;;;;;;5098304;27;20050;-50
2022/12/29 10:58:58;;;;;;;31.17;7.63;;;8.70;99.90;;;;;;5118218;27;20722;-49
2022/12/29 11:01:34;;;;;;;26.95;6.30;;;8.80;99.90;;;;;;5116014;27;20392;-47
2022/12/29 11:04:26;;;;;;;22.63;5.72;;;9.00;99.90;;;;;;5115117;27;20523;-50
2022/12/29 11:06:52;;;;;;;28.33;6.53;;;9.00;99.90;;;;;;5114421;27;20133;-46
2022/12/29 11:09:38;;;;;;;23.08;5.45;;;9.00;99.90;;;;;;5118723;27;20098;-46
2022/12/29 11:12:30;;;;;;;19.80;5.38;;;9.00;99.90;;;;;;5103852;27;20423;-45
2022/12/29 11:15:13;;;;;;;25.13;6.10;;;9.00;99.90;;;;;;5122073;27;20162;-47
2022/12/29 11:17:59;;;;;;;31.63;8.33;;;9.00;99.90;;;;;;5115611;27;21347;-47
2022/12/29 11:20:37;;;;;;;30.17;6.10;;;9.00;99.90;;;;;;5114525;27;20613;-46
2022/12/29 11:23:20;;;;;;;29.10;7.22;;;9.10;99.90;;;;;;5112096;27;20055;-47
2022/12/29 11:25:46;;;;;;;35.78;11.15;;;9.10;99.90;;;;;;5111495;27;20485;-48
2022/12/29 11:28:16;;;;;;;42.72;8.15;;;9.20;99.90;;;;;;5103918;27;20050;-50
2022/12/29 11:30:42;;;;;;;33.85;7.45;;;9.20;99.90;;;;;;5107341;27;20043;-49
2022/12/29 11:33:09;;;;;;;34.60;8.05;;;9.20;99.90;;;;;;5107177;27;20171;-48
2022/12/29 11:35:40;;;;;;;33.28;7.10;;;9.30;99.90;;;;;;5111864;27;20396;-48
2022/12/29 11:38:20;;;;;;;32.67;6.45;;;9.30;99.90;;;;;;5108285;27;20086;-48
2022/12/29 11:40:47;;;;;;;37.45;6.72;;;9.20;99.90;;;;;;5108007;27;20056;-49
2022/12/29 11:43:33;;;;;;;27.83;7.43;;;9.20;99.90;;;;;;5112420;27;20405;-50
2022/12/29 11:45:59;;;;;;;34.70;6.95;;;9.20;99.90;;;;;;5103524;27;20452;-46
2022/12/29 11:48:28;;;;;;;36.70;7.70;;;9.20;99.90;;;;;;5105269;27;20042;-48
2022/12/29 11:50:59;;;;;;;39.15;8.23;;;9.10;99.90;;;;;;5105584;27;20149;-47
2022/12/29 11:53:31;;;;;;;32.78;6.75;;;9.10;99.90;;;;;;5113545;27;20532;-46
2022/12/29 11:56:05;;;;;;;25.40;5.85;;;9.10;99.90;;;;;;5110531;27;20059;-47
2022/12/29 11:58:37;;;;;;;32.15;6.82;;;9.20;99.90;;;;;;5109772;27;20491;-50
2022/12/29 12:01:25;;;;;;;26.20;5.50;;;9.20;99.90;;;;;;5107215;27;20933;-45
2022/12/29 12:03:56;;;;;;;22.70;5.63;;;9.40;99.90;;;;;;5107567;27;20077;-48
2022/12/29 12:06:24;;;;;;;19.90;5.35;;;9.50;99.90;;;;;;5104370;27;20051;-46
2022/12/29 12:09:18;;;;;;;17.58;4.07;;;9.60;99.90;;;;;;5101880;27;20065;-49
2022/12/29 12:11:46;;;;;;;21.83;4.57;;;9.60;99.90;;;;;;5089140;27;20434;-46
2022/12/29 12:14:14;;;;;;;17.92;4.05;;;9.60;99.90;;;;;;5108160;27;20050;-48
2022/12/29 12:16:44;;;;;;;26.48;4.72;;;9.60;99.90;;;;;;5109186;27;20039;-51
2022/12/29 12:19:23;;;;;;;21.00;4.57;;;9.60;99.90;;;;;;5107354;27;20046;-48
2022/12/29 12:21:55;;;;;;;19.23;4.97;;;9.70;99.90;;;;;;5126494;27;20035;-48
2022/12/29 12:24:44;;;;;;;25.67;5.07;;;9.70;99.90;;;;;;5113934;27;20035;-49
2022/12/29 12:27:25;;;;;;;18.10;4.68;;;9.70;99.90;;;;;;5112715;27;20046;-46
2022/12/29 12:30:00;;;;;;;18.20;3.83;;;9.50;99.90;;;;;;5116477;27;20041;-45
2022/12/29 12:32:56;;;;;;;20.63;3.80;;;9.30;99.90;;;;;;5132587;27;20513;-49
2022/12/29 12:35:44;;;;;;;23.35;4.75;;;9.20;99.90;;;;;;5119139;27;20544;-48
2022/12/29 12:38:34;;;;;;;19.98;3.95;;;9.10;99.90;;;;;;5119304;27;20039;-51
2022/12/29 12:41:16;;;;;;;17.25;3.67;;;9.10;99.90;;;;;;5122379;27;20363;-50
2022/12/29 12:43:51;;;;;;;17.27;3.67;;;9.10;99.90;;;;;;5106429;27;20046;-49
2022/12/29 12:46:42;;;;;;;17.05;4.35;;;9.00;99.90;;;;;;5121875;27;20550;-47
2022/12/29 12:49:16;;;;;;;18.27;4.10;;;8.90;99.90;;;;;;5128087;27;20077;-47
2022/12/29 12:52:00;;;;;;;16.73;4.47;;;8.90;99.90;;;;;;5121294;27;20770;-47
2022/12/29 12:55:01;;;;;;;16.60;3.72;;;8.90;99.90;;;;;;5122622;27;20039;-48
2022/12/29 12:58:00;;;;;;;15.82;4.00;;;8.90;99.90;;;;;;5027404;28;20115;-47
2022/12/29 13:00:28;;;;;;;17.13;5.13;;;8.90;99.90;;;;;;5037256;28;20138;-50
2022/12/29 13:03:15;;;;;;;16.65;6.00;;;9.00;99.90;;;;;;5022554;28;20121;-48
2022/12/29 13:06:01;;;;;;;18.58;5.13;;;9.10;99.90;;;;;;5041294;28;20071;-47
2022/12/29 13:08:46;;;;;;;17.20;4.20;;;9.10;99.90;;;;;;5041639;28;20068;-45
2022/12/29 13:11:14;;;;;;;15.98;4.28;;;9.00;99.90;;;;;;5028922;28;20530;-47
2022/12/29 13:14:01;;;;;;;20.02;3.67;;;9.00;99.90;;;;;;5029359;28;20419;-50
2022/12/29 13:17:05;;;;;;;17.58;2.95;;;8.90;99.90;;;;;;5029785;28;20181;-47
2022/12/29 13:19:35;;;;;;;22.40;4.45;;;8.90;99.90;;;;;;4972539;28;20046;-48
2022/12/29 13:22:13;;;;;;;11.77;3.35;;;8.80;99.90;;;;;;4959250;28;20054;-46
2022/12/29 13:24:56;;;;;;;15.65;3.78;;;8.80;99.90;;;;;;4968062;28;20058;-45
2022/12/29 13:27:43;;;;;;;13.77;3.45;;;8.70;99.90;;;;;;4968368;28;20538;-47
2022/12/29 13:30:18;;;;;;;18.85;4.82;;;8.70;99.90;;;;;;4956904;28;20085;-45
2022/12/29 13:33:03;;;;;;;13.85;2.60;;;8.70;99.90;;;;;;4962649;28;20284;-45
2022/12/29 13:35:48;;;;;;;17.63;3.45;;;8.60;99.90;;;;;;5018508;28;20124;-50
2022/12/29 13:38:24;;;;;;;13.27;3.42;;;8.60;99.90;;;;;;5049568;28;20056;-47
2022/12/29 13:41:24;;;;;;;16.08;3.10;;;8.50;99.90;;;;;;5051525;28;20517;-45
2022/12/29 13:43:50;;;;;;;16.23;3.15;;;8.60;99.90;;;;;;5008138;28;20538;-47
2022/12/29 13:46:23;;;;;;;16.63;3.38;;;8.70;99.90;;;;;;5009433;28;20096;-46